sensor_id;sensor_type;location;lat;lon;timestamp;pressure;altitude;pressure_sealevel;temperature;humidity
64253;BME280;50592;52.958;-7.470;2022-12-08T00:00:03;100807.97;;;1.99;100.00
64253;BME280;50592;52.958;-7.470;2022-12-08T00:02:37;100792.53;;;1.94;100.00
64253;BME280;50592;52.958;-7.470;2022-12-08T00:05:03;100797.53;;;1.99;100.00
64253;BME280;50592;52.958;-7.470;2022-12-08T00:07:48;100787.13;;;1.99;100.00
64253;BME280;50592;52.958;-7.470;2022-12-08T00:10:32;100777.59;;;1.98;100.00
64253;BME280;50592;52.958;-7.470;2022-12-08T00:12:58;100780.88;;;2.02;100.00
64253;BME280;50592;52.958;-7.470;2022-12-08T00:15:24;100764.91;;;2.08;100.00
64253;BME280;50592;52.958;-7.470;2022-12-08T00:17:49;100765.44;;;2.15;100.00
64253;BME280;50592;52.958;-7.470;2022-12-08T00:20:15;100761.56;;;2.22;100.00
64253;BME280;50592;52.958;-7.470;2022-12-08T00:22:41;100763.31;;;2.21;100.00
64253;BME280;50592;52.958;-7.470;2022-12-08T00:25:07;100755.28;;;2.26;100.00
64253;BME280;50592;52.958;-7.470;2022-12-08T00:27:32;100752.50;;;2.29;100.00
64253;BME280;50592;52.958;-7.470;2022-12-08T00:29:58;100747.38;;;2.28;100.00
64253;BME280;50592;52.958;-7.470;2022-12-08T00:32:24;100739.75;;;2.23;100.00
64253;BME280;50592;52.958;-7.470;2022-12-08T00:34:50;100748.94;;;2.14;100.00
64253;BME280;50592;52.958;-7.470;2022-12-08T00:37:15;100752.81;;;2.07;100.00
64253;BME280;50592;52.958;-7.470;2022-12-08T00:39:41;100748.66;;;2.03;100.00
64253;BME280;50592;52.958;-7.470;2022-12-08T00:42:07;100754.88;;;2.00;100.00
64253;BME280;50592;52.958;-7.470;2022-12-08T00:44:43;100745.47;;;1.97;100.00
64253;BME280;50592;52.958;-7.470;2022-12-08T00:47:10;100752.59;;;1.94;100.00
64253;BME280;50592;52.958;-7.470;2022-12-08T00:49:36;100744.88;;;1.92;100.00
64253;BME280;50592;52.958;-7.470;2022-12-08T00:52:01;100740.63;;;1.90;100.00
64253;BME280;50592;52.958;-7.470;2022-12-08T00:54:27;100745.78;;;1.91;100.00
64253;BME280;50592;52.958;-7.470;2022-12-08T00:56:53;100738.81;;;1.92;100.00
64253;BME280;50592;52.958;-7.470;2022-12-08T00:59:19;100739.56;;;1.94;100.00
64253;BME280;50592;52.958;-7.470;2022-12-08T01:01:45;100731.66;;;1.95;100.00
64253;BME280;50592;52.958;-7.470;2022-12-08T01:04:13;100731.59;;;1.97;100.00
64253;BME280;50592;52.958;-7.470;2022-12-08T01:06:42;100724.84;;;1.93;100.00
64253;BME280;50592;52.958;-7.470;2022-12-08T01:09:09;100721.50;;;1.91;100.00
64253;BME280;50592;52.958;-7.470;2022-12-08T01:11:35;100718.19;;;1.87;100.00
64253;BME280;50592;52.958;-7.470;2022-12-08T01:14:01;100720.78;;;1.87;100.00
64253;BME280;50592;52.958;-7.470;2022-12-08T01:16:30;100715.59;;;1.87;100.00
64253;BME280;50592;52.958;-7.470;2022-12-08T01:18:57;100715.66;;;1.85;100.00
64253;BME280;50592;52.958;-7.470;2022-12-08T01:21:24;100701.94;;;1.82;100.00
64253;BME280;50592;52.958;-7.470;2022-12-08T01:23:49;100701.28;;;1.78;100.00
64253;BME280;50592;52.958;-7.470;2022-12-08T01:26:16;100705.88;;;1.73;100.00
64253;BME280;50592;52.958;-7.470;2022-12-08T01:28:43;100697.53;;;1.66;100.00
64253;BME280;50592;52.958;-7.470;2022-12-08T01:31:17;100701.97;;;1.64;100.00
64253;BME280;50592;52.958;-7.470;2022-12-08T01:33:44;100698.78;;;1.59;100.00
64253;BME280;50592;52.958;-7.470;2022-12-08T01:36:25;100701.41;;;1.59;100.00
64253;BME280;50592;52.958;-7.470;2022-12-08T01:38:52;100697.16;;;1.56;100.00
64253;BME280;50592;52.958;-7.470;2022-12-08T01:41:22;100690.28;;;1.55;100.00
64253;BME280;50592;52.958;-7.470;2022-12-08T01:46:23;100690.28;;;1.55;100.00
64253;BME280;50592;52.958;-7.470;2022-12-08T01:48:50;100693.59;;;1.59;100.00
64253;BME280;50592;52.958;-7.470;2022-12-08T01:51:18;100683.91;;;1.61;100.00
64253;BME280;50592;52.958;-7.470;2022-12-08T01:53:45;100683.97;;;1.59;100.00
64253;BME280;50592;52.958;-7.470;2022-12-08T01:56:15;100683.25;;;1.57;100.00
64253;BME280;50592;52.958;-7.470;2022-12-08T01:58:49;100679.00;;;1.55;100.00
64253;BME280;50592;52.958;-7.470;2022-12-08T02:01:17;100664.47;;;1.51;100.00
64253;BME280;50592;52.958;-7.470;2022-12-08T02:03:49;100667.59;;;1.57;100.00
64253;BME280;50592;52.958;-7.470;2022-12-08T02:06:17;100663.47;;;1.53;100.00
64253;BME280;50592;52.958;-7.470;2022-12-08T02:08:44;100665.31;;;1.51;100.00
64253;BME280;50592;52.958;-7.470;2022-12-08T02:11:11;100662.03;;;1.47;100.00
64253;BME280;50592;52.958;-7.470;2022-12-08T02:13:39;100653.53;;;1.44;100.00
64253;BME280;50592;52.958;-7.470;2022-12-08T02:29:49;100637.16;;;1.42;100.00
64253;BME280;50592;52.958;-7.470;2022-12-08T02:35:12;100636.22;;;1.43;100.00
64253;BME280;50592;52.958;-7.470;2022-12-08T02:40:33;100634.59;;;1.40;100.00
64253;BME280;50592;52.958;-7.470;2022-12-08T02:43:04;100625.50;;;1.31;100.00
64253;BME280;50592;52.958;-7.470;2022-12-08T02:45:37;100624.41;;;1.19;100.00
64253;BME280;50592;52.958;-7.470;2022-12-08T02:48:07;100620.56;;;1.09;100.00
64253;BME280;50592;52.958;-7.470;2022-12-08T02:50:33;100616.69;;;1.00;100.00
64253;BME280;50592;52.958;-7.470;2022-12-08T02:52:59;100615.38;;;0.91;100.00
64253;BME280;50592;52.958;-7.470;2022-12-08T02:58:08;100615.16;;;0.78;100.00
64253;BME280;50592;52.958;-7.470;2022-12-08T03:00:55;100616.16;;;0.76;100.00
64253;BME280;50592;52.958;-7.470;2022-12-08T03:11:51;100608.66;;;0.69;100.00
64253;BME280;50592;52.958;-7.470;2022-12-08T03:14:20;100603.59;;;0.66;100.00
64253;BME280;50592;52.958;-7.470;2022-12-08T03:16:48;100609.88;;;0.62;100.00
64253;BME280;50592;52.958;-7.470;2022-12-08T03:19:18;100599.72;;;0.57;100.00
64253;BME280;50592;52.958;-7.470;2022-12-08T03:21:49;100598.84;;;0.57;100.00
64253;BME280;50592;52.958;-7.470;2022-12-08T03:24:16;100589.66;;;0.49;100.00
64253;BME280;50592;52.958;-7.470;2022-12-08T03:26:46;100593.25;;;0.47;100.00
64253;BME280;50592;52.958;-7.470;2022-12-08T03:29:13;100591.59;;;0.46;100.00
64253;BME280;50592;52.958;-7.470;2022-12-08T03:31:44;100590.72;;;0.45;100.00
64253;BME280;50592;52.958;-7.470;2022-12-08T03:34:12;100589.06;;;0.44;100.00
64253;BME280;50592;52.958;-7.470;2022-12-08T03:36:39;100582.59;;;0.34;100.00
64253;BME280;50592;52.958;-7.470;2022-12-08T03:39:05;100571.47;;;0.32;100.00
64253;BME280;50592;52.958;-7.470;2022-12-08T03:41:31;100565.63;;;0.27;100.00
64253;BME280;50592;52.958;-7.470;2022-12-08T03:43:57;100569.97;;;0.26;100.00
64253;BME280;50592;52.958;-7.470;2022-12-08T03:46:26;100564.94;;;0.23;100.00
64253;BME280;50592;52.958;-7.470;2022-12-08T03:48:52;100561.63;;;0.19;100.00
64253;BME280;50592;52.958;-7.470;2022-12-08T03:51:18;100562.47;;;0.20;100.00
64253;BME280;50592;52.958;-7.470;2022-12-08T03:53:45;100557.50;;;0.15;100.00
64253;BME280;50592;52.958;-7.470;2022-12-08T03:56:32;100550.84;;;0.09;100.00
64253;BME280;50592;52.958;-7.470;2022-12-08T03:58:59;100552.03;;;0.02;100.00
64253;BME280;50592;52.958;-7.470;2022-12-08T04:01:25;100544.31;;;0.01;100.00
64253;BME280;50592;52.958;-7.470;2022-12-08T04:03:52;100541.09;;;-0.05;100.00
64253;BME280;50592;52.958;-7.470;2022-12-08T04:06:19;100544.69;;;-0.07;100.00
64253;BME280;50592;52.958;-7.470;2022-12-08T04:08:45;100545.97;;;-0.16;100.00
64253;BME280;50592;52.958;-7.470;2022-12-08T04:11:11;100539.72;;;-0.31;100.00
64253;BME280;50592;52.958;-7.470;2022-12-08T04:13:39;100536.34;;;-0.33;100.00
64253;BME280;50592;52.958;-7.470;2022-12-08T04:16:05;100539.88;;;-0.34;100.00
64253;BME280;50592;52.958;-7.470;2022-12-08T04:18:32;100546.13;;;-0.39;100.00
64253;BME280;50592;52.958;-7.470;2022-12-08T04:20:58;100539.25;;;-0.40;100.00
64253;BME280;50592;52.958;-7.470;2022-12-08T04:23:24;100537.00;;;-0.47;100.00
64253;BME280;50592;52.958;-7.470;2022-12-08T04:25:51;100531.38;;;-0.57;100.00
64253;BME280;50592;52.958;-7.470;2022-12-08T04:28:17;100528.44;;;-0.69;100.00
64253;BME280;50592;52.958;-7.470;2022-12-08T04:30:42;100531.41;;;-0.77;100.00
64253;BME280;50592;52.958;-7.470;2022-12-08T04:33:08;100535.72;;;-0.77;100.00
64253;BME280;50592;52.958;-7.470;2022-12-08T04:35:34;100529.63;;;-0.76;100.00
64253;BME280;50592;52.958;-7.470;2022-12-08T04:38:00;100534.81;;;-0.76;100.00
64253;BME280;50592;52.958;-7.470;2022-12-08T04:40:26;100531.25;;;-0.73;100.00
64253;BME280;50592;52.958;-7.470;2022-12-08T04:42:52;100526.00;;;-0.72;100.00
64253;BME280;50592;52.958;-7.470;2022-12-08T04:45:18;100527.66;;;-0.71;100.00
64253;BME280;50592;52.958;-7.470;2022-12-08T04:47:44;100523.47;;;-0.73;100.00
64253;BME280;50592;52.958;-7.470;2022-12-08T04:50:10;100526.88;;;-0.73;100.00
64253;BME280;50592;52.958;-7.470;2022-12-08T04:52:38;100510.50;;;-0.73;100.00
64253;BME280;50592;52.958;-7.470;2022-12-08T04:55:04;100516.56;;;-0.75;100.00
64253;BME280;50592;52.958;-7.470;2022-12-08T04:57:30;100513.22;;;-0.77;100.00
64253;BME280;50592;52.958;-7.470;2022-12-08T04:59:56;100506.19;;;-0.75;100.00
64253;BME280;50592;52.958;-7.470;2022-12-08T05:02:22;100501.06;;;-0.76;100.00
64253;BME280;50592;52.958;-7.470;2022-12-08T05:04:48;100504.53;;;-0.76;100.00
64253;BME280;50592;52.958;-7.470;2022-12-08T05:07:14;100504.38;;;-0.72;100.00
64253;BME280;50592;52.958;-7.470;2022-12-08T05:09:40;100507.75;;;-0.70;100.00
64253;BME280;50592;52.958;-7.470;2022-12-08T05:12:05;100501.91;;;-0.76;100.00
64253;BME280;50592;52.958;-7.470;2022-12-08T05:14:31;100497.88;;;-0.81;100.00
64253;BME280;50592;52.958;-7.470;2022-12-08T05:16:57;100495.13;;;-0.78;100.00
64253;BME280;50592;52.958;-7.470;2022-12-08T05:19:23;100493.34;;;-0.78;100.00
64253;BME280;50592;52.958;-7.470;2022-12-08T05:21:50;100490.69;;;-0.76;100.00
64253;BME280;50592;52.958;-7.470;2022-12-08T05:24:16;100490.00;;;-0.80;100.00
64253;BME280;50592;52.958;-7.470;2022-12-08T05:26:41;100483.91;;;-0.79;100.00
64253;BME280;50592;52.958;-7.470;2022-12-08T05:29:07;100478.69;;;-0.79;100.00
64253;BME280;50592;52.958;-7.470;2022-12-08T05:31:33;100479.56;;;-0.78;100.00
64253;BME280;50592;52.958;-7.470;2022-12-08T05:33:59;100470.13;;;-0.81;100.00
64253;BME280;50592;52.958;-7.470;2022-12-08T05:36:25;100467.53;;;-0.81;100.00
64253;BME280;50592;52.958;-7.470;2022-12-08T05:38:50;100464.13;;;-0.81;100.00
64253;BME280;50592;52.958;-7.470;2022-12-08T05:41:19;100462.34;;;-0.81;100.00
64253;BME280;50592;52.958;-7.470;2022-12-08T05:43:46;100461.47;;;-0.80;100.00
64253;BME280;50592;52.958;-7.470;2022-12-08T05:46:12;100453.75;;;-0.81;100.00
64253;BME280;50592;52.958;-7.470;2022-12-08T05:48:39;100452.81;;;-0.80;100.00
64253;BME280;50592;52.958;-7.470;2022-12-08T05:51:07;100448.25;;;-0.75;100.00
64253;BME280;50592;52.958;-7.470;2022-12-08T05:53:37;100457.72;;;-0.74;100.00
64253;BME280;50592;52.958;-7.470;2022-12-08T05:56:03;100450.09;;;-0.77;100.00
64253;BME280;50592;52.958;-7.470;2022-12-08T05:58:29;100453.81;;;-0.83;100.00
64253;BME280;50592;52.958;-7.470;2022-12-08T06:00:55;100446.56;;;-0.95;100.00
64253;BME280;50592;52.958;-7.470;2022-12-08T06:03:21;100441.84;;;-1.06;100.00
64253;BME280;50592;52.958;-7.470;2022-12-08T06:05:47;100447.06;;;-1.06;100.00
64253;BME280;50592;52.958;-7.470;2022-12-08T06:08:13;100450.44;;;-1.04;100.00
64253;BME280;50592;52.958;-7.470;2022-12-08T06:10:39;100446.84;;;-1.02;100.00
64253;BME280;50592;52.958;-7.470;2022-12-08T06:13:06;100433.88;;;-1.02;100.00
64253;BME280;50592;52.958;-7.470;2022-12-08T06:15:36;100441.22;;;-0.92;100.00
64253;BME280;50592;52.958;-7.470;2022-12-08T06:18:04;100440.34;;;-0.91;100.00
64253;BME280;50592;52.958;-7.470;2022-12-08T06:20:30;100442.88;;;-0.90;100.00
64253;BME280;50592;52.958;-7.470;2022-12-08T06:22:56;100448.94;;;-0.91;100.00
64253;BME280;50592;52.958;-7.470;2022-12-08T06:25:22;100442.72;;;-0.86;100.00
64253;BME280;50592;52.958;-7.470;2022-12-08T06:27:48;100441.72;;;-0.84;100.00
64253;BME280;50592;52.958;-7.470;2022-12-08T06:30:14;100434.56;;;-0.79;100.00
64253;BME280;50592;52.958;-7.470;2022-12-08T06:32:41;100430.16;;;-0.77;100.00
64253;BME280;50592;52.958;-7.470;2022-12-08T06:35:07;100434.16;;;-0.69;100.00
64253;BME280;50592;52.958;-7.470;2022-12-08T06:37:33;100436.59;;;-0.66;100.00
64253;BME280;50592;52.958;-7.470;2022-12-08T06:39:59;100430.47;;;-0.65;100.00
64253;BME280;50592;52.958;-7.470;2022-12-08T06:42:25;100426.06;;;-0.63;100.00
64253;BME280;50592;52.958;-7.470;2022-12-08T06:45:10;100423.25;;;-0.58;100.00
64253;BME280;50592;52.958;-7.470;2022-12-08T06:47:36;100424.03;;;-0.56;100.00
64253;BME280;50592;52.958;-7.470;2022-12-08T06:50:03;100428.03;;;-0.68;100.00
64253;BME280;50592;52.958;-7.470;2022-12-08T06:52:29;100424.00;;;-0.93;100.00
64253;BME280;50592;52.958;-7.470;2022-12-08T06:54:55;100424.69;;;-1.09;100.00
64253;BME280;50592;52.958;-7.470;2022-12-08T06:57:20;100420.59;;;-1.15;100.00
64253;BME280;50592;52.958;-7.470;2022-12-08T06:59:48;100413.31;;;-1.06;100.00
64253;BME280;50592;52.958;-7.470;2022-12-08T07:02:14;100407.03;;;-1.01;100.00
64253;BME280;50592;52.958;-7.470;2022-12-08T07:04:41;100409.41;;;-0.96;100.00
64253;BME280;50592;52.958;-7.470;2022-12-08T07:07:07;100406.81;;;-0.96;100.00
64253;BME280;50592;52.958;-7.470;2022-12-08T07:09:33;100404.91;;;-0.92;100.00
64253;BME280;50592;52.958;-7.470;2022-12-08T07:11:59;100410.72;;;-0.87;100.00
64253;BME280;50592;52.958;-7.470;2022-12-08T07:14:25;100407.91;;;-0.82;100.00
64253;BME280;50592;52.958;-7.470;2022-12-08T07:16:51;100413.09;;;-0.82;100.00
64253;BME280;50592;52.958;-7.470;2022-12-08T07:19:17;100403.78;;;-0.86;100.00
64253;BME280;50592;52.958;-7.470;2022-12-08T07:21:43;100403.09;;;-0.90;100.00
64253;BME280;50592;52.958;-7.470;2022-12-08T07:24:09;100400.50;;;-0.90;100.00
64253;BME280;50592;52.958;-7.470;2022-12-08T07:26:36;100401.84;;;-0.81;100.00
64253;BME280;50592;52.958;-7.470;2022-12-08T07:29:02;100399.09;;;-0.78;100.00
64253;BME280;50592;52.958;-7.470;2022-12-08T07:31:28;100400.56;;;-0.72;100.00
64253;BME280;50592;52.958;-7.470;2022-12-08T07:33:55;100390.72;;;-0.66;100.00
64253;BME280;50592;52.958;-7.470;2022-12-08T07:36:22;100396.66;;;-0.64;100.00
64253;BME280;50592;52.958;-7.470;2022-12-08T07:38:48;100389.50;;;-0.58;100.00
64253;BME280;50592;52.958;-7.470;2022-12-08T07:41:19;100399.66;;;-0.54;100.00
64253;BME280;50592;52.958;-7.470;2022-12-08T07:43:46;100395.41;;;-0.55;100.00
64253;BME280;50592;52.958;-7.470;2022-12-08T07:46:18;100395.84;;;-0.64;100.00
64253;BME280;50592;52.958;-7.470;2022-12-08T07:48:45;100390.25;;;-0.74;100.00
64253;BME280;50592;52.958;-7.470;2022-12-08T07:51:12;100390.94;;;-0.70;100.00
64253;BME280;50592;52.958;-7.470;2022-12-08T07:53:40;100392.84;;;-0.74;100.00
64253;BME280;50592;52.958;-7.470;2022-12-08T07:56:07;100385.97;;;-0.75;100.00
64253;BME280;50592;52.958;-7.470;2022-12-08T07:58:33;100389.38;;;-0.75;100.00
64253;BME280;50592;52.958;-7.470;2022-12-08T08:00:58;100377.03;;;-0.69;100.00
64253;BME280;50592;52.958;-7.470;2022-12-08T08:03:24;100380.41;;;-0.67;100.00
64253;BME280;50592;52.958;-7.470;2022-12-08T08:05:50;100380.13;;;-0.61;100.00
64253;BME280;50592;52.958;-7.470;2022-12-08T08:08:17;100380.88;;;-0.59;100.00
64253;BME280;50592;52.958;-7.470;2022-12-08T08:10:43;100382.72;;;-0.61;100.00
64253;BME280;50592;52.958;-7.470;2022-12-08T08:13:09;100379.13;;;-0.58;100.00
64253;BME280;50592;52.958;-7.470;2022-12-08T08:15:35;100375.66;;;-0.59;100.00
64253;BME280;50592;52.958;-7.470;2022-12-08T08:18:00;100373.78;;;-0.55;100.00
64253;BME280;50592;52.958;-7.470;2022-12-08T08:20:28;100372.81;;;-0.53;100.00
64253;BME280;50592;52.958;-7.470;2022-12-08T08:22:54;100374.31;;;-0.48;100.00
64253;BME280;50592;52.958;-7.470;2022-12-08T08:25:22;100372.59;;;-0.48;100.00
64253;BME280;50592;52.958;-7.470;2022-12-08T08:27:48;100371.81;;;-0.50;100.00
64253;BME280;50592;52.958;-7.470;2022-12-08T08:30:14;100373.41;;;-0.47;100.00
64253;BME280;50592;52.958;-7.470;2022-12-08T08:32:41;100376.94;;;-0.48;100.00
64253;BME280;50592;52.958;-7.470;2022-12-08T08:35:07;100371.72;;;-0.48;100.00
64253;BME280;50592;52.958;-7.470;2022-12-08T08:37:33;100375.25;;;-0.49;100.00
64253;BME280;50592;52.958;-7.470;2022-12-08T08:39:59;100378.75;;;-0.51;100.00
64253;BME280;50592;52.958;-7.470;2022-12-08T08:42:25;100376.94;;;-0.48;100.00
64253;BME280;50592;52.958;-7.470;2022-12-08T08:44:51;100380.22;;;-0.45;100.00
64253;BME280;50592;52.958;-7.470;2022-12-08T08:47:17;100376.69;;;-0.44;100.00
64253;BME280;50592;52.958;-7.470;2022-12-08T08:49:42;100372.44;;;-0.45;100.00
64253;BME280;50592;52.958;-7.470;2022-12-08T08:52:09;100380.16;;;-0.43;100.00
64253;BME280;50592;52.958;-7.470;2022-12-08T08:54:34;100372.50;;;-0.46;100.00
64253;BME280;50592;52.958;-7.470;2022-12-08T08:57:01;100377.78;;;-0.48;100.00
64253;BME280;50592;52.958;-7.470;2022-12-08T08:59:27;100374.56;;;-0.53;100.00
64253;BME280;50592;52.958;-7.470;2022-12-08T09:01:53;100373.84;;;-0.57;100.00
64253;BME280;50592;52.958;-7.470;2022-12-08T09:04:22;100367.69;;;-0.54;100.00
64253;BME280;50592;52.958;-7.470;2022-12-08T09:06:48;100365.69;;;-0.49;100.00
64253;BME280;50592;52.958;-7.470;2022-12-08T09:09:14;100362.72;;;-0.41;100.00
64253;BME280;50592;52.958;-7.470;2022-12-08T09:11:41;100360.81;;;-0.38;100.00
64253;BME280;50592;52.958;-7.470;2022-12-08T09:14:10;100359.66;;;-0.32;100.00
64253;BME280;50592;52.958;-7.470;2022-12-08T09:16:37;100362.97;;;-0.28;100.00
64253;BME280;50592;52.958;-7.470;2022-12-08T09:19:03;100354.19;;;-0.26;100.00
64253;BME280;50592;52.958;-7.470;2022-12-08T09:21:29;100358.22;;;-0.20;100.00
64253;BME280;50592;52.958;-7.470;2022-12-08T09:23:56;100361.28;;;-0.11;100.00
64253;BME280;50592;52.958;-7.470;2022-12-08T09:26:23;100361.88;;;-0.06;100.00
64253;BME280;50592;52.958;-7.470;2022-12-08T09:28:51;100360.91;;;-0.04;100.00
64253;BME280;50592;52.958;-7.470;2022-12-08T09:31:18;100356.41;;;0.00;100.00
64253;BME280;50592;52.958;-7.470;2022-12-08T09:33:45;100358.22;;;-0.02;100.00
64253;BME280;50592;52.958;-7.470;2022-12-08T09:36:10;100361.13;;;-0.08;100.00
64253;BME280;50592;52.958;-7.470;2022-12-08T09:38:37;100356.41;;;-0.18;100.00
64253;BME280;50592;52.958;-7.470;2022-12-08T09:41:12;100367.25;;;-0.27;100.00
64253;BME280;50592;52.958;-7.470;2022-12-08T09:43:56;100359.59;;;-0.30;100.00
64253;BME280;50592;52.958;-7.470;2022-12-08T09:46:27;100363.41;;;-0.38;100.00
64253;BME280;50592;52.958;-7.470;2022-12-08T09:48:58;100362.50;;;-0.36;100.00
64253;BME280;50592;52.958;-7.470;2022-12-08T09:51:26;100362.06;;;-0.27;100.00
64253;BME280;50592;52.958;-7.470;2022-12-08T09:54:03;100356.41;;;-0.18;100.00
64253;BME280;50592;52.958;-7.470;2022-12-08T09:56:35;100356.16;;;-0.13;100.00
64253;BME280;50592;52.958;-7.470;2022-12-08T09:59:16;100361.88;;;-0.06;100.00
64253;BME280;50592;52.958;-7.470;2022-12-08T10:01:45;100350.44;;;-0.02;100.00
64253;BME280;50592;52.958;-7.470;2022-12-08T10:04:23;100356.91;;;0.07;100.00
64253;BME280;50592;52.958;-7.470;2022-12-08T10:10:02;100359.63;;;0.21;100.00
64253;BME280;50592;52.958;-7.470;2022-12-08T10:12:39;100359.38;;;0.26;100.00
64253;BME280;50592;52.958;-7.470;2022-12-08T10:17:59;100340.88;;;0.32;100.00
64253;BME280;50592;52.958;-7.470;2022-12-08T10:20:35;100338.78;;;0.39;100.00
64253;BME280;50592;52.958;-7.470;2022-12-08T10:25:43;100341.16;;;0.44;100.00
64253;BME280;50592;52.958;-7.470;2022-12-08T10:28:11;100341.06;;;0.45;100.00
64253;BME280;50592;52.958;-7.470;2022-12-08T10:30:38;100333.88;;;0.51;100.00
64253;BME280;50592;52.958;-7.470;2022-12-08T10:33:04;100334.44;;;0.56;100.00
64253;BME280;50592;52.958;-7.470;2022-12-08T10:35:52;100341.19;;;0.60;100.00
64253;BME280;50592;52.958;-7.470;2022-12-08T10:38:32;100347.72;;;0.67;100.00
64253;BME280;50592;52.958;-7.470;2022-12-08T10:41:18;100347.56;;;0.70;100.00
64253;BME280;50592;52.958;-7.470;2022-12-08T10:46:19;100339.50;;;0.75;100.00
64253;BME280;50592;52.958;-7.470;2022-12-08T10:49:10;100341.19;;;0.76;100.00
64253;BME280;50592;52.958;-7.470;2022-12-08T10:51:41;100337.56;;;0.79;100.00
64253;BME280;50592;52.958;-7.470;2022-12-08T10:54:32;100341.69;;;0.83;100.00
64253;BME280;50592;52.958;-7.470;2022-12-08T10:57:00;100338.94;;;0.86;100.00
64253;BME280;50592;52.958;-7.470;2022-12-08T10:59:26;100337.66;;;0.93;100.00
64253;BME280;50592;52.958;-7.470;2022-12-08T11:01:55;100333.53;;;1.05;100.00
64253;BME280;50592;52.958;-7.470;2022-12-08T11:06:51;100325.38;;;1.11;100.00
64253;BME280;50592;52.958;-7.470;2022-12-08T11:11:59;100339.16;;;1.14;100.00
64253;BME280;50592;52.958;-7.470;2022-12-08T11:14:36;100332.63;;;1.06;100.00
64253;BME280;50592;52.958;-7.470;2022-12-08T11:19:53;100322.38;;;1.03;100.00
64253;BME280;50592;52.958;-7.470;2022-12-08T11:22:30;100323.28;;;1.02;100.00
64253;BME280;50592;52.958;-7.470;2022-12-08T11:27:47;100301.75;;;1.31;100.00
64253;BME280;50592;52.958;-7.470;2022-12-08T11:30:20;100303.66;;;1.43;100.00
64253;BME280;50592;52.958;-7.470;2022-12-08T11:32:49;100300.25;;;1.57;100.00
64253;BME280;50592;52.958;-7.470;2022-12-08T11:35:32;100298.31;;;1.76;100.00
64253;BME280;50592;52.958;-7.470;2022-12-08T11:38:05;100293.72;;;1.95;100.00
64253;BME280;50592;52.958;-7.470;2022-12-08T11:40:37;100283.38;;;2.08;100.00
64253;BME280;50592;52.958;-7.470;2022-12-08T11:45:41;100283.00;;;2.29;100.00
64253;BME280;50592;52.958;-7.470;2022-12-08T11:48:17;100277.94;;;2.41;100.00
64253;BME280;50592;52.958;-7.470;2022-12-08T11:50:58;100278.50;;;2.46;100.00
64253;BME280;50592;52.958;-7.470;2022-12-08T11:53:30;100280.81;;;2.51;100.00
64253;BME280;50592;52.958;-7.470;2022-12-08T11:56:06;100278.84;;;2.54;100.00
64253;BME280;50592;52.958;-7.470;2022-12-08T11:58:40;100276.34;;;2.53;100.00
64253;BME280;50592;52.958;-7.470;2022-12-08T12:01:19;100278.47;;;2.60;100.00
64253;BME280;50592;52.958;-7.470;2022-12-08T12:15:12;100261.16;;;2.59;100.00
64253;BME280;50592;52.958;-7.470;2022-12-08T12:17:56;100256.22;;;2.55;100.00
64253;BME280;50592;52.958;-7.470;2022-12-08T12:26:15;100268.06;;;2.31;100.00
64253;BME280;50592;52.958;-7.470;2022-12-08T12:28:51;100267.34;;;2.29;100.00
64253;BME280;50592;52.958;-7.470;2022-12-08T12:31:28;100271.34;;;2.20;100.00
64253;BME280;50592;52.958;-7.470;2022-12-08T12:34:04;100267.53;;;2.12;100.00
64253;BME280;50592;52.958;-7.470;2022-12-08T12:36:50;100259.81;;;2.10;100.00
64253;BME280;50592;52.958;-7.470;2022-12-08T12:39:21;100262.53;;;1.94;100.00
64253;BME280;50592;52.958;-7.470;2022-12-08T12:41:51;100272.09;;;2.08;100.00
64253;BME280;50592;52.958;-7.470;2022-12-08T12:54:44;100252.44;;;2.17;100.00
64253;BME280;50592;52.958;-7.470;2022-12-08T13:05:09;100232.97;;;2.65;100.00
64253;BME280;50592;52.958;-7.470;2022-12-08T13:10:37;100239.31;;;2.60;100.00
64253;BME280;50592;52.958;-7.470;2022-12-08T13:13:15;100235.16;;;2.58;100.00
64253;BME280;50592;52.958;-7.470;2022-12-08T13:18:46;100231.31;;;2.64;100.00
64253;BME280;50592;52.958;-7.470;2022-12-08T13:21:16;100233.25;;;2.60;100.00
64253;BME280;50592;52.958;-7.470;2022-12-08T13:23:44;100224.25;;;2.51;100.00
64253;BME280;50592;52.958;-7.470;2022-12-08T13:26:23;100232.09;;;2.51;100.00
64253;BME280;50592;52.958;-7.470;2022-12-08T13:34:06;100223.38;;;2.65;100.00
64253;BME280;50592;52.958;-7.470;2022-12-08T13:36:35;100212.84;;;2.67;100.00
64253;BME280;50592;52.958;-7.470;2022-12-08T13:39:04;100209.47;;;2.65;100.00
64253;BME280;50592;52.958;-7.470;2022-12-08T13:41:36;100211.88;;;2.68;100.00
64253;BME280;50592;52.958;-7.470;2022-12-08T13:44:20;100206.88;;;2.65;100.00
64253;BME280;50592;52.958;-7.470;2022-12-08T13:46:52;100202.78;;;2.60;100.00
64253;BME280;50592;52.958;-7.470;2022-12-08T13:49:27;100203.28;;;2.53;100.00
64253;BME280;50592;52.958;-7.470;2022-12-08T13:51:55;100205.91;;;2.53;100.00
64253;BME280;50592;52.958;-7.470;2022-12-08T13:54:36;100205.69;;;2.56;100.00
64253;BME280;50592;52.958;-7.470;2022-12-08T13:57:06;100208.41;;;2.54;100.00
64253;BME280;50592;52.958;-7.470;2022-12-08T13:59:33;100203.00;;;2.57;100.00
64253;BME280;50592;52.958;-7.470;2022-12-08T14:02:10;100209.16;;;2.56;100.00
64253;BME280;50592;52.958;-7.470;2022-12-08T14:04:43;100206.66;;;2.55;100.00
64253;BME280;50592;52.958;-7.470;2022-12-08T14:07:10;100198.72;;;2.56;100.00
64253;BME280;50592;52.958;-7.470;2022-12-08T14:09:36;100191.22;;;2.65;100.00
64253;BME280;50592;52.958;-7.470;2022-12-08T14:14:40;100193.31;;;2.59;100.00
64253;BME280;50592;52.958;-7.470;2022-12-08T14:17:16;100195.63;;;2.64;100.00
64253;BME280;50592;52.958;-7.470;2022-12-08T14:19:44;100192.16;;;2.64;100.00
64253;BME280;50592;52.958;-7.470;2022-12-08T14:22:16;100192.91;;;2.66;100.00
64253;BME280;50592;52.958;-7.470;2022-12-08T14:24:52;100190.50;;;2.63;100.00
64253;BME280;50592;52.958;-7.470;2022-12-08T14:27:21;100189.94;;;2.57;100.00
64253;BME280;50592;52.958;-7.470;2022-12-08T14:29:50;100180.56;;;2.55;100.00